Flight Track Log - Related Links

Times and Time Zones

All times are in EDT time to prevent confusion due to time zone crossing. See the JBU1781 flight status page for this flight to view local times or setup timezone preferences in your user account.

Time Position Orientation Groundspeed Altitude Reporting Facility
EDT Latitude Longitude Course Direction KTS MPH feet Rate Location/Type
Wed 02:01:45 PM 28.4000 -81.3000 139° Southeast 151 174 1,100  Level Orlando TRACON
Wed 02:02:45 PM 28.3667 -81.2667 139° Southeast 204 235 2,600 1,750 Climbing Orlando TRACON
Wed 02:03:45 PM 28.3167 -81.2333 150° Southeast 257 296 4,600 2,577 Climbing Orlando TRACON
Wed 02:05:21 PM 28.2736 -81.0997 110° East 281 323 9,300 2,577 Climbing Miami Center
Wed 02:06:21 PM 28.2531 -81.0094 104° East 286 329 11,300 2,000 Climbing Miami Center
Wed 02:07:00 PM 28.0362 -80.8449 139° Southeast  Level Estimated
Wed 02:07:21 PM 28.2289 -80.9119 106° East 301 346 13,300  Level Miami Center
Wed 02:08:22 PM 28.1875 -80.8186 117° Southeast 320 368 15,400 1,934 Climbing Miami Center
Wed 02:09:22 PM 28.1253 -80.7342 130° Southeast 337 388 17,200 1,664 Climbing Miami Center
Wed 02:10:21 PM 28.0567 -80.6447 131° Southeast 353 406 18,700 1,664 Climbing Miami Center
Wed 02:11:21 PM 27.9900 -80.5556 130° Southeast 373 429 20,500 1,700 Climbing Miami Center
Wed 02:12:21 PM 27.9294 -80.4758 131° Southeast 373 429 22,100 1,250 Climbing Miami Center
Wed 02:13:21 PM 27.8589 -80.3822 130° Southeast 373 429 23,000 450 Climbing Miami Center
Wed 02:14:21 PM 27.7839 -80.2858 131° Southeast 392 451 23,000  Level Miami Center
Wed 02:15:22 PM 27.7089 -80.1875 131° Southeast 400 460 23,000  Level Miami Center
Wed 02:16:22 PM 27.6358 -80.0917 131° Southeast 400 460 23,000  Level Miami Center
Wed 02:17:22 PM 27.5608 -79.9936 131° Southeast 400 460 23,000  Level Miami Center
Wed 02:18:22 PM 27.4856 -79.8956 131° Southeast 400 460 23,000  Level Miami Center
Wed 02:19:22 PM 27.4083 -79.7928 130° Southeast 395 455 23,000  Level Miami Center
Wed 02:20:21 PM 27.3331 -79.6950 131° Southeast 402 463 23,000  Level Miami Center
Wed 02:21:21 PM 27.2658 -79.6069 131° Southeast 402 463 23,000  Level Miami Center
Wed 02:22:21 PM 27.1822 -79.4975 131° Southeast 408 470 23,000  Level Miami Center
Wed 02:23:22 PM 27.1089 -79.4025 131° Southeast 408 470 23,000  Level Miami Center
Wed 02:24:22 PM 27.0311 -79.3053 132° Southeast 413 475 23,000  Level Miami Center
Wed 02:25:21 PM 26.9597 -79.2106 130° Southeast 413 475 23,000  Level Miami Center
Wed 02:26:22 PM 26.8819 -79.1111 131° Southeast 408 470 23,000  Level Miami Center
Wed 02:27:22 PM 26.8019 -79.0119 132° Southeast 408 470 23,000  Level Miami Center
Wed 02:28:21 PM 26.7303 -78.9175 130° Southeast 414 476 23,000  Level Miami Center
Wed 02:29:22 PM 26.6583 -78.8208 130° Southeast 409 471 23,000  Level Miami Center
Wed 02:30:21 PM 26.5864 -78.7361 134° Southeast 409 471 23,000  Level Miami Center
Wed 02:31:21 PM 26.5144 -78.6419 130° Southeast 404 465 23,000  Level Miami Center
Wed 02:32:21 PM 26.4425 -78.5458 130° Southeast 404 465 23,000  Level Miami Center
Wed 02:33:21 PM 26.3747 -78.4428 126° Southeast 404 465 23,000  Level Miami Center
Wed 02:34:21 PM 26.3025 -78.3444 129° Southeast 404 465 23,000  Level Miami Center
Wed 02:35:22 PM 26.2347 -78.2439 127° Southeast 404 465 23,000  Level Miami Center
Wed 02:36:21 PM 26.1603 -78.1506 132° Southeast 404 465 23,000 -403 Level Miami Center
Wed 02:37:21 PM 26.0900 -78.0528 129° Southeast 404 465 22,200 -1,250 Descending Miami Center
Wed 02:38:21 PM 26.0217 -77.9572 128° Southeast 399 459 20,500 -1,550 Descending Miami Center
Wed 02:39:21 PM 25.9597 -77.8664 127° Southeast 389 448 19,100 -1,350 Descending Miami Center
Wed 02:40:21 PM 25.8997 -77.7828 129° Southeast 362 417 17,800 -1,250 Descending Miami Center
Wed 02:41:21 PM 25.8417 -77.7039 129° Southeast 344 396 16,600 -1,400 Descending Miami Center
Wed 02:42:21 PM 25.7856 -77.6272 129° Southeast 331 381 15,000 -1,500 Descending Miami Center
Wed 02:43:21 PM 25.7297 -77.5508 129° Southeast 324 373 13,600 -1,190 Descending Miami Center
Wed 02:44:22 PM 25.6631 -77.4906 141° Southeast 314 361 12,600 -1,250 Descending Miami Center
Wed 02:45:21 PM 25.5772 -77.4856 177° South 297 342 11,100 -1,525 Descending Miami Center
Wed 02:47:00 PM 25.4227 -77.4639 175° South  Level FlightAware Approximate
Wed 02:54:00 PM 25.0333 -77.4500 180° South  Level FlightAware Approximate
Wed 02:55:00 PM 25.0390 -77.4662 180° South  Level Estimated
Wed 02:56:00 PM 25.0390 -77.4662 180° South  Level Estimated
Wed 02:57:00 PM 25.0390 -77.4662 180° South  Level Estimated
Wed 02:58:00 PM 25.0390 -77.4662 180° South  Level Estimated
Wed 02:59:00 PM 25.0390 -77.4662 180° South  Level Estimated
Wed 03:00:00 PM 25.0390 -77.4662 180° South  Level Estimated
Wed 03:01:00 PM 25.0390 -77.4662 180° South  Level Estimated
Wed 03:02:00 PM 25.0390 -77.4662 180° South  Level Estimated
Wed 03:03:00 PM 25.0390 -77.4662 180° South  Level Estimated
Wed 03:04:00 PM 25.0390 -77.4662 180° South  Level Estimated
Wed 03:05:00 PM 25.0390 -77.4662 180° South  Level Estimated

Login

Don't have an account? Register now (free) for customized features, flight alerts, and more!